Aérodrome :
LOGIN :

S'inscrire | Disclaimer

   EN    FR    IT 

 










Légende :    VFR   VFR Marginal   IFR   IFR Intensif   IFR Très Intensif
Visi : 
Plafond : 
>= 8 km
>= 3000ft
5 à 8 km
1000 à 3000 ft
1500m à 5 km
500 à 1000 ft
800 à 1500m
200 à 500 ft
< 800m
< 200 ft
Symboles :   Orages  Brouillard  Fortes neiges  Fortes précipitations  Vent > 20 kt
SIGMETs :   Divers  Orages  Givrage  Turbulence  Onde Orograph.  Cendres Volcan.







- Altitude de l'aérodrome : 16 ft
- Code IATA : SDR


LEXJ - Santander Cantabria

DERNIER METAR :
  • 251130Z 04007KT 350V090 CAVOK 23/18 Q1017

METARs EXPIRÉS :
  • 251100Z 04008KT 340V100 CAVOK 24/18 Q1017
  • 251030Z 05009KT 010V090 CAVOK 24/18 Q1017
  • 251000Z 07008KT 020V110 CAVOK 25/18 Q1017
  • 250930Z 07008KT 030V130 CAVOK 25/18 Q1017
  • 250900Z 04006KT 340V090 CAVOK 23/19 Q1017

TAF TAF LEXJ
Valide du 25 à 09h jusqu'au 26 à 09h UTC


250800Z 2509/2609 07009KT CAVOK TX24/2512Z TN15/2604Z
TEMPO 2511/2518 05015G26KT
Pas de NOTAMs connus pour ce terrain.
1 SIGMET publié pour la FIR Madrid (LECM) :
 
Orages noyés dans la masse
LECM SIGMET 5 VALID 251100/251400 LEVA
LECM MADRID FIR/UIR EMBD TS FCST WI N4410 W013 - N43 W00840 - N4330 W00750 - N4450 W01010 - N4450 W01250 - N4410 W013 TOP FL350 MOV NW 20KT NC=



MET'MAP, la Météo Aéronautique d'un coup d'oeil ! - Copyright ORBIFLY Décembre 2007 - Disclaimer

ORBIFLY MET'MAP TEAM :

Programmation & Développement : Alexandra Zaïnal
Conception & Développement : Baudouin d'Aumeries
Co-Programmation & Développement : Marc-Olivier Méhu
Soutien technique & logistique : Manuel Goepfert

Contact : metmap@orbifly.com




SOURCES & CREDITS :

   NOAA